Terminal Aerodrome Forecast
Issued by NWS

Home | Current Version | Previous Version | Text Only | Print | Product List | Glossary On
Versions: 1 2 3 4 5 6 7 8 9 10 11 12 13 14 15 16 17 18 19 20 21 22 23 24 25 26
968
FTUS43 KGLD 190520
TAFMCK
TAF
KMCK 190520Z 1906/2006 VRB05KT P6SM FEW250
     FM190900 VRB03KT P6SM SCT020
     FM191500 15009KT P6SM FEW150
     FM192000 16010G18KT P6SM SCT150
     FM192300 16015G25KT P6SM SCT150 WS020/19040KT=

USA.gov is the U.S. government's official web portal to all federal, state and local government web resources and services.